Leesburg, FL

1:58 PM EDT on October 20, 2014 (GMT -0400)
Leesburg Regional | Change Station
CLOSE
Current Station
Airport
Location: Leesburg,
Elevation: 75 ft
Nearby Weather Stations

Elev 75 ft 28.82 °N, 81.81 °W | Updated 5 minutes ago

Clear
Clear
83 °F
Feels Like 83 °F
N
5
Wind Variable Wind from Variable

Today
High -- | Low -- °F
--% Chance of Precip.
Yesterday
High -- | Low -- °F
Precip. -- in
7:31 AM 6:52 PM
Waning Crescent, 10% visible
Pressure 30.00 in
Visibility 10.0 miles
Clouds Clear
Heat Index 83 °F
Dew Point 59 °F
Humidity 44%
Rainfall 0.00 in
Snow Depth Not available.
UV 9 out of 12
Pollen 5.60 out of 12
Air Quality Not available.
Flu Activity Local Activity
METAR KLEE 201753Z VRB04KT 10SM CLR 28/15 A3000 RMK AO2 SLP159 T02830150 10289 20172 58024

More Conditions Fewer Conditions

Pressure 30.00 in
Visibility 10.0 miles
Clouds Clear
Heat Index 83 °F
Dew Point 59 °F
Humidity 44%
Rainfall 0.00 in
Snow Depth Not available.
UV 9 out of 12
Pollen 5.60 out of 12
Air Quality Not available.
Flu Activity Local Activity
METAR KLEE 201753Z VRB04KT 10SM CLR 28/15 A3000 RMK AO2 SLP159 T02830150 10289 20172 58024

More Conditions Fewer Conditions

Nowcast | as of 12:15 PM EDT on October 20, 2014

Southeast to south winds over the Atlantic Ocean will push clouds toward the coast this afternoon and early evening. A few light showers or sprinkles will be possible on the coastal waters and the immediate coast from Flagler Beach to Jupiter Inlet the rest of the day. Additional details...including graphics are available online at: http://www.Srh.NOAA.Gov/mlb/blog.Php

×

10-Day Weather Forecast

Almanac

Astronomy

Oct. 20, 2014 Rise Set
Actual Time 7:31 AM EDT 6:52 PM EDT
Civil Twilight 7:07 AM EDT 7:16 PM EDT
Nautical Twilight 6:39 AM EDT 7:43 PM EDT
Astronomical Twilight 6:12 AM EDT 8:11 PM EDT
Moon 4:33 AM EDT 5:01 PM EDT
Length of Visible Light 12h 08m
Length of Day
11h 20m
Waning Crescent, 10% of the Moon is Illuminated
Today
Waning Crescent
Oct 23
New
Oct 30
First Quarter
Nov 6
Full
Nov 14
Last Quarter

Today's Extremes

State Highs State Lows

Community

WunderPhotos

Upload Photos

1,763,446 photos uploaded!

WunderBlogs® & News

Nearby

Snow Depth

Station Depth Elevation
No new snow has been reported.

Earthquake Activity

City Distance Mag. Time & Date
No recent earthquake activity has been reported nearby.
Minimum magnitude displayed is 2.5.

Coastal Water Temperatures

Place Temperature
No Stations Reporting

Nearby Weather Stations